NCAR-RAP Real-Time Weather Data

Output produced by METARs form (10 April 2020  07:26 UTC)
found at http://weather.rap.ucar.edu/surface/
 
KLNK 100654Z AUTO 00000KT 10SM CLR M06/M10 A3025 RMK AO2 SLP252 T10561100
KLNK 100554Z AUTO 36003KT 10SM CLR M03/M09 A3025 RMK AO2 SLP251 T10281094 10078 21044 401331044 50000
KLNK 100454Z AUTO 29003KT 10SM CLR 00/M09 A3026 RMK AO2 SLP253 T00001094
KLNK 100354Z AUTO 01006KT 10SM CLR M02/M09 A3026 RMK AO2 SLP255 T10221094
KLNK 100254Z AUTO 01010KT 10SM CLR 01/M09 A3025 RMK AO2 SLP250 T00061094 53024
KLNK 100154Z 01014G21KT 10SM CLR 02/M10 A3022 RMK AO2 SLP239 T00221100
KLNK 100054Z 35018G25KT 10SM CLR 05/M12 A3019 RMK AO2 PK WND 35029/0001 SLP231 T00501117
KLNK 092354Z 35020KT 10SM CLR 08/M11 A3018 RMK AO2 PK WND 36032/2255 SLP227 T00781111 10133 20078 53023
KLNK 092254Z 35024G33KT 10SM CLR 09/M09 A3015 RMK AO2 PK WND 35036/2157 SLP217 T00941094
KLNK 092154Z 35022G32KT 10SM CLR 11/M09 A3013 RMK AO2 PK WND 35035/2122 SLP206 T01061094
KLNK 092054Z 34018G33KT 10SM CLR 12/M09 A3011 RMK AO2 PK WND 34040/2015 SLP200 T01171094 50000
KLNK 091954Z 33026G38KT 10SM CLR 12/M11 A3011 RMK AO2 PK WND 30040/1911 SLP200 T01221106
KLNK 091854Z 33022G40KT 10SM CLR 13/M12 A3012 RMK AO2 PK WND 31042/1833 SLP201 T01331117
KLNK 091754Z 32024G36KT 10SM CLR 13/M08 A3011 RMK AO2 PK WND 33043/1702 SLP200 T01281083 10128 21017 56006
KLNK 091654Z 31022G40KT 10SM CLR 12/M08 A3012 RMK AO2 PK WND 29040/1651 SLP204 T01221078
KLNK 091554Z 33026G36KT 10SM FEW110 11/M08 A3011 RMK AO2 PK WND 33036/1552 SLP201 T01111078
KLNK 091354Z 28011KT 10SM CLR 06/M05 A3013 RMK AO2 SLP207 T00561050
KLNK 091254Z 28008KT 10SM CLR 03/M05 A3012 RMK AO2 SLP204 T00281050
KLNK 091154Z 30004KT 10SM CLR 01/M06 A3010 RMK AO2 SLP197 T00111056 10061 21017 53001
KLNK 091054Z 35005KT 10SM CLR M01/M06 A3009 RMK AO2 SLP195 T10111056
KLNK 090954Z AUTO 34006KT 10SM CLR 03/M06 A3010 RMK AO2 SLP196 T00331056
KLNK 090854Z AUTO 28006KT 10SM CLR 04/M05 A3010 RMK AO2 SLP193 T00391050 51011